Time;durP1;ratioP1;P1;durP2;ratioP2;P2;SDS_P1;SDS_P2;PMS_P1;PMS_P2;Temp;Humidity;BMP_temperature;BMP_pressure;BME280_temperature;BME280_humidity;BME280_pressure;Samples;Min_cycle;Max_cycle;Signal;HPM_P1;HPM_P2
2021/08/25 00:00:21;;;;;;;5.07;3.10;;;;;;;;;;5033130;28;20913;-61
2021/08/25 00:02:50;;;;;;;4.87;3.40;;;;;;;;;;5033272;28;20496;-60
2021/08/25 00:05:18;;;;;;;5.37;3.90;;;;;;;;;;5034091;28;20506;-60
2021/08/25 00:07:45;;;;;;;4.13;3.17;;;;;;;;;;5033313;28;20448;-61
2021/08/25 00:10:12;;;;;;;5.03;3.47;;;;;;;;;;5033305;28;20475;-61
2021/08/25 00:12:40;;;;;;;5.77;3.40;;;;;;;;;;5033155;28;20526;-60
2021/08/25 00:15:08;;;;;;;4.73;3.10;;;;;;;;;;5033208;28;20500;-60
2021/08/25 00:17:35;;;;;;;6.17;3.53;;;;;;;;;;5033185;28;20470;-60
2021/08/25 00:20:04;;;;;;;4.33;3.40;;;;;;;;;;5032845;28;20453;-60
2021/08/25 00:22:32;;;;;;;5.17;3.97;;;;;;;;;;5032812;28;20444;-60
2021/08/25 00:24:59;;;;;;;6.27;3.73;;;;;;;;;;5036311;28;20941;-60
2021/08/25 00:27:26;;;;;;;5.93;4.17;;;;;;;;;;5037143;28;20448;-60
2021/08/25 00:29:53;;;;;;;5.10;3.50;;;;;;;;;;5037104;28;20609;-60
2021/08/25 00:32:20;;;;;;;6.20;3.70;;;;;;;;;;5036866;28;20452;-60
2021/08/25 00:34:48;;;;;;;5.53;3.50;;;;;;;;;;5037074;28;20484;-60
2021/08/25 00:37:16;;;;;;;5.03;4.10;;;;;;;;;;5036803;28;20444;-60
2021/08/25 00:39:44;;;;;;;8.17;3.87;;;;;;;;;;5036679;28;20465;-60
2021/08/25 00:42:11;;;;;;;5.37;3.87;;;;;;;;;;5036882;28;20495;-60
2021/08/25 00:44:38;;;;;;;5.33;4.30;;;;;;;;;;5037220;28;20444;-60
2021/08/25 00:47:05;;;;;;;5.17;3.80;;;;;;;;;;5037053;28;21006;-60
2021/08/25 00:49:33;;;;;;;7.13;3.97;;;;;;;;;;5037143;28;20460;-60
2021/08/25 00:52:00;;;;;;;6.27;3.30;;;;;;;;;;5037208;28;20860;-61
2021/08/25 00:54:28;;;;;;;5.03;3.50;;;;;;;;;;5037281;28;20554;-61
2021/08/25 00:56:56;;;;;;;4.50;3.47;;;;;;;;;;5037015;28;20515;-60
2021/08/25 00:59:23;;;;;;;5.07;4.20;;;;;;;;;;5038131;28;20915;-61
2021/08/25 01:02:03;;;;;;;4.97;3.90;;;;;;;;;;5036948;28;20471;-60
2021/08/25 01:04:33;;;;;;;5.20;3.90;;;;;;;;;;5037278;28;20471;-61
2021/08/25 01:07:02;;;;;;;4.93;4.00;;;;;;;;;;5036696;28;20453;-61
2021/08/25 01:09:31;;;;;;;5.40;4.23;;;;;;;;;;5036338;28;20469;-60
2021/08/25 01:12:00;;;;;;;3.90;3.43;;;;;;;;;;5036705;28;20502;-60
2021/08/25 01:14:28;;;;;;;5.57;4.03;;;;;;;;;;5037375;28;20489;-60
2021/08/25 01:16:56;;;;;;;5.00;3.83;;;;;;;;;;5036623;28;20536;-60
2021/08/25 01:19:23;;;;;;;5.93;3.80;;;;;;;;;;5036511;28;20460;-60
2021/08/25 01:21:51;;;;;;;5.17;3.90;;;;;;;;;;5036902;28;20449;-60
2021/08/25 01:24:19;;;;;;;4.90;3.47;;;;;;;;;;5036175;28;20499;-60
2021/08/25 01:26:51;;;;;;;4.10;3.27;;;;;;;;;;5035907;28;20531;-60
2021/08/25 01:29:22;;;;;;;4.23;3.53;;;;;;;;;;5036067;28;20461;-61
2021/08/25 01:31:49;;;;;;;4.10;3.27;;;;;;;;;;5036105;28;20878;-61
2021/08/25 01:34:16;;;;;;;5.37;3.83;;;;;;;;;;5035922;28;20476;-60
2021/08/25 01:36:44;;;;;;;4.07;3.50;;;;;;;;;;5035330;28;20510;-61
2021/08/25 01:39:11;;;;;;;4.90;3.90;;;;;;;;;;5039287;28;20992;-59
2021/08/25 01:41:38;;;;;;;5.70;3.93;;;;;;;;;;5037919;28;20445;-60
2021/08/25 01:44:06;;;;;;;4.67;3.73;;;;;;;;;;5035647;28;20510;-61
2021/08/25 01:46:35;;;;;;;6.87;4.37;;;;;;;;;;5035452;28;20684;-60
2021/08/25 01:49:05;;;;;;;6.30;4.90;;;;;;;;;;5035693;28;20461;-60
2021/08/25 01:51:32;;;;;;;7.43;4.53;;;;;;;;;;5035364;28;20543;-60
2021/08/25 01:53:59;;;;;;;7.40;3.93;;;;;;;;;;5035522;28;20819;-60
2021/08/25 01:56:27;;;;;;;5.77;3.93;;;;;;;;;;5035377;28;20445;-60
2021/08/25 01:58:54;;;;;;;7.07;5.40;;;;;;;;;;5035051;28;20992;-61
2021/08/25 02:01:21;;;;;;;9.90;4.50;;;;;;;;;;5035372;28;20863;-59
2021/08/25 02:03:50;;;;;;;7.23;4.90;;;;;;;;;;5035242;28;20495;-60
2021/08/25 02:06:17;;;;;;;6.77;5.37;;;;;;;;;;5035390;28;20873;-61
2021/08/25 02:08:45;;;;;;;5.53;4.27;;;;;;;;;;5035456;28;20518;-61
2021/08/25 02:11:12;;;;;;;6.17;5.10;;;;;;;;;;5035343;28;20449;-60
2021/08/25 02:13:39;;;;;;;5.97;4.70;;;;;;;;;;5035059;28;20599;-61
2021/08/25 02:16:06;;;;;;;5.60;5.00;;;;;;;;;;5035491;28;20499;-61
2021/08/25 02:18:33;;;;;;;5.17;4.67;;;;;;;;;;5034920;28;20469;-61
2021/08/25 02:21:02;;;;;;;9.23;5.70;;;;;;;;;;5035093;28;20449;-61
2021/08/25 02:23:29;;;;;;;7.40;5.70;;;;;;;;;;5035035;28;20925;-61
2021/08/25 02:25:57;;;;;;;6.43;4.90;;;;;;;;;;5034845;28;20457;-61
2021/08/25 02:28:24;;;;;;;6.40;5.20;;;;;;;;;;5034963;28;20465;-60
2021/08/25 02:30:51;;;;;;;5.97;4.77;;;;;;;;;;5035032;28;20926;-60
2021/08/25 02:33:18;;;;;;;7.83;5.00;;;;;;;;;;5034478;28;20995;-61
2021/08/25 02:35:46;;;;;;;6.73;4.93;;;;;;;;;;5034512;28;20445;-61
2021/08/25 02:38:14;;;;;;;5.50;4.97;;;;;;;;;;5034436;28;20527;-61
2021/08/25 02:40:42;;;;;;;6.07;5.13;;;;;;;;;;5034725;28;20543;-61
2021/08/25 02:43:09;;;;;;;4.93;4.43;;;;;;;;;;5034412;28;21076;-60
2021/08/25 02:45:36;;;;;;;6.60;5.60;;;;;;;;;;5034385;28;20449;-61
2021/08/25 02:48:04;;;;;;;5.67;4.50;;;;;;;;;;5033488;28;20524;-59
2021/08/25 02:50:31;;;;;;;6.30;4.83;;;;;;;;;;5034285;28;20942;-60
2021/08/25 02:52:58;;;;;;;8.20;5.20;;;;;;;;;;5034566;28;20444;-60
2021/08/25 02:55:27;;;;;;;6.50;4.67;;;;;;;;;;5034414;28;20554;-60
2021/08/25 02:57:54;;;;;;;5.00;4.30;;;;;;;;;;5034226;28;20527;-61
2021/08/25 03:00:22;;;;;;;9.03;4.77;;;;;;;;;;5034449;28;20431;-61
2021/08/25 03:02:49;;;;;;;6.27;5.10;;;;;;;;;;5034390;28;20449;-60
2021/08/25 03:05:16;;;;;;;7.00;4.80;;;;;;;;;;5034251;28;20441;-60
2021/08/25 03:07:43;;;;;;;7.50;5.03;;;;;;;;;;5034176;28;20495;-61
2021/08/25 03:10:11;;;;;;;5.93;4.63;;;;;;;;;;5033924;28;20445;-60
2021/08/25 03:12:40;;;;;;;6.90;4.93;;;;;;;;;;5034156;28;20437;-61
2021/08/25 03:15:08;;;;;;;5.60;4.60;;;;;;;;;;5034052;28;20476;-60
2021/08/25 03:17:35;;;;;;;7.87;5.10;;;;;;;;;;5034066;28;20441;-60
2021/08/25 03:20:02;;;;;;;7.63;5.67;;;;;;;;;;5033701;28;21003;-60
2021/08/25 03:22:30;;;;;;;7.80;5.90;;;;;;;;;;5033851;28;20449;-61
2021/08/25 03:24:57;;;;;;;11.17;7.00;;;;;;;;;;5033911;28;20494;-60
2021/08/25 03:27:24;;;;;;;12.60;8.00;;;;;;;;;;5033889;28;20445;-60
2021/08/25 03:29:53;;;;;;;9.17;7.10;;;;;;;;;;5033886;28;20472;-60
2021/08/25 03:32:20;;;;;;;9.30;5.80;;;;;;;;;;5033841;28;20499;-60
2021/08/25 03:34:47;;;;;;;9.47;6.63;;;;;;;;;;5033423;28;20885;-60
2021/08/25 03:37:15;;;;;;;7.60;5.50;;;;;;;;;;5033503;28;20918;-60
2021/08/25 03:39:42;;;;;;;8.80;6.77;;;;;;;;;;5033402;28;20535;-60
2021/08/25 03:42:09;;;;;;;8.47;5.50;;;;;;;;;;5033422;28;20449;-60
2021/08/25 03:44:36;;;;;;;6.03;5.43;;;;;;;;;;5033791;28;20510;-60
2021/08/25 03:47:05;;;;;;;8.73;5.83;;;;;;;;;;5033706;28;20445;-60
2021/08/25 03:49:32;;;;;;;9.07;5.33;;;;;;;;;;5033467;28;20465;-60
2021/08/25 03:52:00;;;;;;;9.30;6.00;;;;;;;;;;5033647;28;20452;-60
2021/08/25 03:54:27;;;;;;;7.03;5.60;;;;;;;;;;5033406;28;20531;-60
2021/08/25 03:56:55;;;;;;;8.73;6.30;;;;;;;;;;5033294;28;20987;-60
2021/08/25 03:59:22;;;;;;;9.33;5.47;;;;;;;;;;5033008;28;20480;-61
2021/08/25 04:01:49;;;;;;;8.30;5.23;;;;;;;;;;5033428;28;20470;-60
2021/08/25 04:04:18;;;;;;;6.30;4.80;;;;;;;;;;5033160;28;20440;-60
2021/08/25 04:08:30;;;;;;;7.50;5.10;;;;;;;;;;5111882;27;21128;-60
2021/08/25 04:10:57;;;;;;;5.70;5.07;;;;;;;;;;5111456;28;20514;-60
2021/08/25 04:13:24;;;;;;;7.57;4.97;;;;;;;;;;5111152;28;20511;-61
2021/08/25 04:15:51;;;;;;;8.50;6.27;;;;;;;;;;5111253;28;20445;-60
2021/08/25 04:18:19;;;;;;;7.60;5.57;;;;;;;;;;5111804;28;20457;-61
2021/08/25 04:20:46;;;;;;;6.00;4.90;;;;;;;;;;5111589;28;20524;-60
2021/08/25 04:23:13;;;;;;;7.10;5.50;;;;;;;;;;5111399;28;20445;-60
2021/08/25 04:25:42;;;;;;;7.10;5.27;;;;;;;;;;5110854;28;20496;-60
2021/08/25 04:28:10;;;;;;;6.93;4.40;;;;;;;;;;5110904;28;20556;-58
2021/08/25 04:30:38;;;;;;;6.73;5.40;;;;;;;;;;5110585;28;20442;-61
2021/08/25 04:33:05;;;;;;;5.57;4.97;;;;;;;;;;5110470;28;20445;-59
2021/08/25 04:35:32;;;;;;;9.60;6.10;;;;;;;;;;5110328;28;20475;-60
2021/08/25 04:37:59;;;;;;;7.50;5.40;;;;;;;;;;5112615;28;20510;-61
2021/08/25 04:40:27;;;;;;;7.77;5.20;;;;;;;;;;5111712;28;20796;-60
2021/08/25 04:42:55;;;;;;;7.47;5.30;;;;;;;;;;5112226;28;20441;-60
2021/08/25 04:45:22;;;;;;;7.93;5.33;;;;;;;;;;5111812;28;20453;-60
2021/08/25 04:47:50;;;;;;;7.97;5.17;;;;;;;;;;5110661;28;20477;-60
2021/08/25 04:50:17;;;;;;;5.50;4.63;;;;;;;;;;5110809;28;20502;-61
2021/08/25 04:52:44;;;;;;;9.67;5.80;;;;;;;;;;5110748;28;20442;-61
2021/08/25 04:55:12;;;;;;;7.20;4.97;;;;;;;;;;5110489;28;20449;-60
2021/08/25 04:57:39;;;;;;;7.50;5.67;;;;;;;;;;5110328;28;20437;-61
2021/08/25 05:00:08;;;;;;;7.93;5.33;;;;;;;;;;5117775;28;20450;-60
2021/08/25 05:02:36;;;;;;;7.33;4.73;;;;;;;;;;5121602;28;20449;-61
2021/08/25 05:05:03;;;;;;;7.03;5.13;;;;;;;;;;5110841;28;20480;-59
2021/08/25 05:07:31;;;;;;;8.10;5.20;;;;;;;;;;5110535;28;20534;-61
2021/08/25 05:09:58;;;;;;;6.80;4.90;;;;;;;;;;5109858;28;20515;-60
2021/08/25 05:12:25;;;;;;;8.27;6.20;;;;;;;;;;5110300;28;20995;-60
2021/08/25 05:14:52;;;;;;;9.43;5.73;;;;;;;;;;5111271;28;20449;-60
2021/08/25 05:17:21;;;;;;;8.63;5.67;;;;;;;;;;5111730;28;20438;-59
2021/08/25 05:19:48;;;;;;;6.40;5.30;;;;;;;;;;5098221;28;20465;-60
2021/08/25 05:22:15;;;;;;;7.27;4.90;;;;;;;;;;5098162;28;20526;-60
2021/08/25 05:24:43;;;;;;;6.77;5.50;;;;;;;;;;5097284;28;20446;-60
2021/08/25 05:27:10;;;;;;;8.67;5.77;;;;;;;;;;5099333;28;20473;-60
2021/08/25 05:29:37;;;;;;;12.10;6.23;;;;;;;;;;5098715;28;20458;-62
2021/08/25 05:32:05;;;;;;;6.90;5.47;;;;;;;;;;5096631;28;20492;-61
2021/08/25 05:34:33;;;;;;;7.63;5.20;;;;;;;;;;5098291;28;20934;-59
2021/08/25 05:37:01;;;;;;;7.63;5.50;;;;;;;;;;5096560;28;20439;-61
2021/08/25 05:39:28;;;;;;;10.90;6.00;;;;;;;;;;5095918;28;20466;-61
2021/08/25 05:41:55;;;;;;;8.67;5.30;;;;;;;;;;5095975;28;20438;-60
2021/08/25 05:44:22;;;;;;;8.43;5.40;;;;;;;;;;5096727;28;20446;-60
2021/08/25 05:46:50;;;;;;;5.97;4.60;;;;;;;;;;5097054;28;20519;-60
2021/08/25 05:49:17;;;;;;;6.40;5.30;;;;;;;;;;5096132;28;20462;-61
2021/08/25 05:51:46;;;;;;;9.53;5.30;;;;;;;;;;5096072;28;20500;-60
2021/08/25 05:54:14;;;;;;;6.53;4.97;;;;;;;;;;5095969;28;20450;-60
2021/08/25 05:56:41;;;;;;;6.43;5.20;;;;;;;;;;5095733;28;20450;-61
2021/08/25 05:59:08;;;;;;;6.60;4.90;;;;;;;;;;5095499;28;20466;-59
2021/08/25 06:01:36;;;;;;;7.13;4.90;;;;;;;;;;5095399;28;20499;-60
2021/08/25 06:04:03;;;;;;;8.60;5.97;;;;;;;;;;5095501;28;20446;-60
2021/08/25 06:06:31;;;;;;;10.20;5.30;;;;;;;;;;5095054;28;20583;-60
2021/08/25 06:08:59;;;;;;;12.43;5.50;;;;;;;;;;5094837;28;20490;-60
2021/08/25 06:11:26;;;;;;;11.30;5.83;;;;;;;;;;5095158;28;20446;-61
2021/08/25 06:13:54;;;;;;;6.50;4.90;;;;;;;;;;5095043;28;20443;-61
2021/08/25 06:16:21;;;;;;;7.07;5.30;;;;;;;;;;5095191;28;20499;-60
2021/08/25 06:18:48;;;;;;;6.47;4.80;;;;;;;;;;5094958;28;20553;-61
2021/08/25 06:21:16;;;;;;;12.70;5.30;;;;;;;;;;5096077;28;20454;-60
2021/08/25 06:23:44;;;;;;;6.80;4.90;;;;;;;;;;5095437;28;20545;-59
2021/08/25 06:26:13;;;;;;;8.20;5.87;;;;;;;;;;5094723;28;20507;-60
2021/08/25 06:28:40;;;;;;;9.53;5.10;;;;;;;;;;5095159;28;20478;-61
2021/08/25 06:31:07;;;;;;;10.03;5.70;;;;;;;;;;5094039;28;20446;-60
2021/08/25 06:33:34;;;;;;;10.40;5.57;;;;;;;;;;5094766;28;20511;-60
2021/08/25 06:36:02;;;;;;;7.97;5.60;;;;;;;;;;5094696;28;20442;-60
2021/08/25 06:38:29;;;;;;;9.03;5.80;;;;;;;;;;5094254;28;20462;-60
2021/08/25 06:40:56;;;;;;;8.43;6.03;;;;;;;;;;5095107;28;20447;-60
2021/08/25 06:43:26;;;;;;;7.50;4.80;;;;;;;;;;5094958;28;20446;-60
2021/08/25 06:45:53;;;;;;;6.90;4.90;;;;;;;;;;5094326;28;20453;-60
2021/08/25 06:48:20;;;;;;;7.27;5.27;;;;;;;;;;5094669;28;20593;-59
2021/08/25 06:50:47;;;;;;;6.33;5.13;;;;;;;;;;5094335;28;20857;-60
2021/08/25 06:53:15;;;;;;;8.37;5.37;;;;;;;;;;5094620;28;20442;-60
2021/08/25 06:55:42;;;;;;;8.77;5.60;;;;;;;;;;5107784;28;20446;-60
2021/08/25 06:58:09;;;;;;;9.30;5.43;;;;;;;;;;5101111;28;21043;-59
2021/08/25 07:00:38;;;;;;;8.93;5.70;;;;;;;;;;5077058;22;20562;-56
2021/08/25 07:03:05;;;;;;;8.63;6.13;;;;;;;;;;5034147;28;20453;-55
2021/08/25 07:05:32;;;;;;;11.37;6.10;;;;;;;;;;5034394;28;20459;-55
2021/08/25 07:08:00;;;;;;;7.33;4.90;;;;;;;;;;5035085;28;20480;-53
2021/08/25 07:10:27;;;;;;;12.47;5.20;;;;;;;;;;5034060;28;20999;-54
2021/08/25 07:12:55;;;;;;;6.17;4.73;;;;;;;;;;5034000;28;20457;-54
2021/08/25 07:15:22;;;;;;;10.77;5.40;;;;;;;;;;5033707;28;20449;-54
2021/08/25 07:17:50;;;;;;;5.93;5.27;;;;;;;;;;5033494;28;20441;-56
2021/08/25 07:20:18;;;;;;;9.30;4.57;;;;;;;;;;5033441;28;20859;-55
2021/08/25 07:22:45;;;;;;;6.43;4.57;;;;;;;;;;5033376;28;20453;-54
2021/08/25 07:25:12;;;;;;;7.47;5.07;;;;;;;;;;5033798;28;20444;-54
2021/08/25 07:27:40;;;;;;;6.17;4.83;;;;;;;;;;5033560;28;20544;-54
2021/08/25 07:30:07;;;;;;;7.20;4.67;;;;;;;;;;5033645;28;20469;-54
2021/08/25 07:32:35;;;;;;;8.97;4.90;;;;;;;;;;5033566;28;20457;-54
2021/08/25 07:35:04;;;;;;;7.30;4.50;;;;;;;;;;5033191;28;20956;-54
2021/08/25 07:37:31;;;;;;;7.00;4.87;;;;;;;;;;5033276;28;20537;-54
2021/08/25 07:39:58;;;;;;;5.60;4.23;;;;;;;;;;5033280;28;20542;-54
2021/08/25 07:42:25;;;;;;;7.10;5.07;;;;;;;;;;5032981;28;20499;-55
2021/08/25 07:44:53;;;;;;;7.27;4.70;;;;;;;;;;5033602;28;20499;-55
2021/08/25 07:47:20;;;;;;;7.90;4.37;;;;;;;;;;5033429;28;20519;-57
2021/08/25 07:49:47;;;;;;;5.17;4.57;;;;;;;;;;5032775;28;20461;-55
2021/08/25 07:52:16;;;;;;;6.23;4.83;;;;;;;;;;5032623;28;20867;-54
2021/08/25 07:54:43;;;;;;;6.30;4.80;;;;;;;;;;5032942;28;20482;-55
2021/08/25 07:57:10;;;;;;;7.77;4.53;;;;;;;;;;5033060;28;20563;-54
2021/08/25 07:59:38;;;;;;;6.77;4.47;;;;;;;;;;5032693;28;20472;-53
2021/08/25 08:02:05;;;;;;;5.30;4.30;;;;;;;;;;5032755;28;20445;-53
2021/08/25 08:04:32;;;;;;;4.83;4.10;;;;;;;;;;5033007;28;20475;-54
2021/08/25 08:06:59;;;;;;;6.30;4.70;;;;;;;;;;5033293;28;20869;-54
2021/08/25 08:09:28;;;;;;;5.57;4.03;;;;;;;;;;5033797;28;21058;-54
2021/08/25 08:11:55;;;;;;;5.77;3.60;;;;;;;;;;5032553;28;20941;-54
2021/08/25 08:14:23;;;;;;;6.13;4.80;;;;;;;;;;5033176;28;20441;-55
2021/08/25 08:16:55;;;;;;;10.00;4.27;;;;;;;;;;5033645;28;20449;-55
2021/08/25 08:19:23;;;;;;;7.53;4.30;;;;;;;;;;5033043;28;20881;-55
2021/08/25 08:21:51;;;;;;;7.73;4.20;;;;;;;;;;5032984;28;20499;-56
2021/08/25 08:24:19;;;;;;;5.00;4.20;;;;;;;;;;5032786;28;20510;-55
2021/08/25 08:26:47;;;;;;;6.63;4.10;;;;;;;;;;5032499;28;20499;-53
2021/08/25 08:29:15;;;;;;;7.37;4.40;;;;;;;;;;5032306;28;20481;-55
2021/08/25 08:31:42;;;;;;;5.53;4.53;;;;;;;;;;5032299;28;20937;-55
2021/08/25 08:34:09;;;;;;;4.00;3.23;;;;;;;;;;5032353;28;20449;-55
2021/08/25 08:36:37;;;;;;;5.13;3.63;;;;;;;;;;5032647;28;20503;-56
2021/08/25 08:39:04;;;;;;;5.17;3.90;;;;;;;;;;5032555;28;20548;-55
2021/08/25 08:41:31;;;;;;;6.60;3.97;;;;;;;;;;5032474;28;21018;-56
2021/08/25 08:44:00;;;;;;;5.97;3.53;;;;;;;;;;5032308;28;20456;-55
2021/08/25 08:46:27;;;;;;;4.93;4.17;;;;;;;;;;5032456;28;20499;-55
2021/08/25 08:48:55;;;;;;;4.60;3.63;;;;;;;;;;5032405;28;20913;-55
2021/08/25 08:51:23;;;;;;;5.00;4.00;;;;;;;;;;5032783;28;20449;-54
2021/08/25 08:53:51;;;;;;;5.30;3.33;;;;;;;;;;5033674;28;20448;-56
2021/08/25 08:56:19;;;;;;;10.10;4.00;;;;;;;;;;5036132;28;20440;-55
2021/08/25 08:58:48;;;;;;;5.33;3.87;;;;;;;;;;5036279;28;20449;-55
2021/08/25 09:01:16;;;;;;;6.50;4.63;;;;;;;;;;5036485;28;20476;-56
2021/08/25 09:03:44;;;;;;;5.63;3.63;;;;;;;;;;5036169;28;20502;-55
2021/08/25 09:06:11;;;;;;;4.57;3.63;;;;;;;;;;5036622;28;20506;-55
2021/08/25 09:08:39;;;;;;;6.63;4.03;;;;;;;;;;5035835;28;20477;-54
2021/08/25 09:11:07;;;;;;;5.00;3.40;;;;;;;;;;5036185;28;20469;-56
2021/08/25 09:13:35;;;;;;;5.23;3.60;;;;;;;;;;5036178;28;20495;-54
2021/08/25 09:16:03;;;;;;;7.13;4.30;;;;;;;;;;5035704;28;20499;-55
2021/08/25 09:18:32;;;;;;;4.83;3.70;;;;;;;;;;5035869;28;20503;-55
2021/08/25 09:20:59;;;;;;;5.00;3.77;;;;;;;;;;5036258;28;20461;-55
2021/08/25 09:23:27;;;;;;;5.43;4.03;;;;;;;;;;5035741;28;20453;-56
2021/08/25 09:25:54;;;;;;;5.60;4.00;;;;;;;;;;5036198;28;20495;-54
2021/08/25 09:28:28;;;;;;;4.57;3.83;;;;;;;;;;5035787;28;20481;-55
2021/08/25 09:30:57;;;;;;;6.73;4.10;;;;;;;;;;5035645;28;20508;-55
2021/08/25 09:33:26;;;;;;;7.97;4.73;;;;;;;;;;5035720;28;20531;-55
2021/08/25 09:35:55;;;;;;;6.20;3.67;;;;;;;;;;5035836;28;20523;-54
2021/08/25 09:38:23;;;;;;;11.70;4.90;;;;;;;;;;5035534;28;20786;-55
2021/08/25 09:40:51;;;;;;;8.93;4.40;;;;;;;;;;5035180;28;20531;-55
2021/08/25 09:43:33;;;;;;;4.63;3.77;;;;;;;;;;5035509;28;20448;-56
2021/08/25 09:46:03;;;;;;;5.87;4.33;;;;;;;;;;5032237;28;21018;-55
2021/08/25 09:48:33;;;;;;;8.47;4.00;;;;;;;;;;5035672;28;20484;-56
2021/08/25 09:51:02;;;;;;;9.30;4.03;;;;;;;;;;5034981;28;20461;-55
2021/08/25 09:53:30;;;;;;;5.67;3.90;;;;;;;;;;5035040;28;20500;-55
2021/08/25 09:55:57;;;;;;;11.63;4.53;;;;;;;;;;5035088;28;20515;-55
2021/08/25 09:58:25;;;;;;;7.77;4.63;;;;;;;;;;5036139;28;20445;-54
2021/08/25 10:00:53;;;;;;;8.50;4.37;;;;;;;;;;5034633;28;20484;-55
2021/08/25 10:03:20;;;;;;;6.47;4.10;;;;;;;;;;5034766;28;20480;-56
2021/08/25 10:05:47;;;;;;;9.13;5.20;;;;;;;;;;5034352;28;20931;-55
2021/08/25 10:08:16;;;;;;;5.67;4.47;;;;;;;;;;5034254;28;20481;-54
2021/08/25 10:10:44;;;;;;;6.80;4.43;;;;;;;;;;5034708;28;20832;-56
2021/08/25 10:13:12;;;;;;;8.37;4.63;;;;;;;;;;5034627;28;20523;-55
2021/08/25 10:15:47;;;;;;;6.67;4.93;;;;;;;;;;5034248;28;20461;-55
2021/08/25 10:18:24;;;;;;;6.07;4.90;;;;;;;;;;5034793;28;20448;-55
2021/08/25 10:20:52;;;;;;;8.03;4.30;;;;;;;;;;5034559;28;20523;-55
2021/08/25 10:23:22;;;;;;;5.07;4.10;;;;;;;;;;5034479;28;20528;-56
2021/08/25 10:26:08;;;;;;;7.93;5.50;;;;;;;;;;5034500;28;20450;-55
2021/08/25 10:28:50;;;;;;;6.37;4.50;;;;;;;;;;5034350;28;20575;-55
2021/08/25 10:31:18;;;;;;;5.53;4.57;;;;;;;;;;5018034;28;20478;-57
2021/08/25 10:34:00;;;;;;;7.40;5.20;;;;;;;;;;5034122;28;20501;-55
2021/08/25 10:36:27;;;;;;;6.33;4.60;;;;;;;;;;5033515;28;20870;-55
2021/08/25 10:38:56;;;;;;;7.97;4.60;;;;;;;;;;5034222;28;20496;-54
2021/08/25 10:41:24;;;;;;;8.90;4.40;;;;;;;;;;5034168;28;20509;-54
2021/08/25 10:43:54;;;;;;;7.43;5.13;;;;;;;;;;5034448;28;20455;-56
2021/08/25 10:46:21;;;;;;;5.93;5.20;;;;;;;;;;5034583;28;20434;-56
2021/08/25 10:48:52;;;;;;;6.37;4.53;;;;;;;;;;5034458;28;20535;-55
2021/08/25 10:51:40;;;;;;;6.40;4.17;;;;;;;;;;5034265;28;20454;-54
2021/08/25 10:54:17;;;;;;;5.23;4.23;;;;;;;;;;5033962;28;20450;-56
2021/08/25 10:56:46;;;;;;;4.70;3.97;;;;;;;;;;5034037;28;20499;-54
2021/08/25 10:59:14;;;;;;;4.47;4.00;;;;;;;;;;5033446;28;20447;-55
2021/08/25 11:01:42;;;;;;;8.50;4.23;;;;;;;;;;5033587;28;20920;-56
2021/08/25 11:04:14;;;;;;;5.17;3.77;;;;;;;;;;5033998;28;20446;-55
2021/08/25 11:06:42;;;;;;;6.20;4.57;;;;;;;;;;5033981;28;20483;-55
2021/08/25 11:09:27;;;;;;;5.70;4.63;;;;;;;;;;5033641;28;20485;-56
2021/08/25 11:11:58;;;;;;;6.23;5.20;;;;;;;;;;5033470;28;20418;-56
2021/08/25 11:14:27;;;;;;;7.73;5.40;;;;;;;;;;5033669;28;20466;-54
2021/08/25 11:16:55;;;;;;;6.33;5.00;;;;;;;;;;5033002;28;20442;-54
2021/08/25 11:19:26;;;;;;;7.30;5.50;;;;;;;;;;5033196;28;21048;-54
2021/08/25 11:21:54;;;;;;;7.17;5.27;;;;;;;;;;5033355;28;20493;-56
2021/08/25 11:24:22;;;;;;;4.93;4.43;;;;;;;;;;5033355;28;20440;-55
2021/08/25 11:26:49;;;;;;;8.33;5.60;;;;;;;;;;5033078;28;20523;-55
2021/08/25 11:29:18;;;;;;;10.63;7.00;;;;;;;;;;5033147;28;20486;-56
2021/08/25 11:31:46;;;;;;;10.00;5.50;;;;;;;;;;5032903;28;20862;-56
2021/08/25 11:34:13;;;;;;;9.80;6.00;;;;;;;;;;5033213;28;20506;-56
2021/08/25 11:36:57;;;;;;;10.93;6.40;;;;;;;;;;5032710;28;20513;-54
2021/08/25 11:39:25;;;;;;;5.60;5.00;;;;;;;;;;5033747;28;20992;-55
2021/08/25 11:41:53;;;;;;;6.20;4.50;;;;;;;;;;5033290;28;20444;-55
2021/08/25 11:44:39;;;;;;;7.70;5.07;;;;;;;;;;5032892;28;20952;-55
2021/08/25 11:47:12;;;;;;;8.50;5.33;;;;;;;;;;5033843;28;20664;-55
2021/08/25 11:49:40;;;;;;;11.47;5.93;;;;;;;;;;5033587;28;20488;-54
2021/08/25 11:52:08;;;;;;;7.77;6.23;;;;;;;;;;5032656;28;20905;-55
2021/08/25 11:54:35;;;;;;;6.03;5.43;;;;;;;;;;5032677;28;20447;-55
2021/08/25 11:57:03;;;;;;;7.27;6.00;;;;;;;;;;5032555;28;20859;-55
2021/08/25 11:59:31;;;;;;;7.33;5.30;;;;;;;;;;5033060;28;20580;-55
2021/08/25 12:02:07;;;;;;;8.63;5.63;;;;;;;;;;5033421;28;20531;-55
2021/08/25 12:04:36;;;;;;;6.80;5.07;;;;;;;;;;5032542;28;20849;-53
2021/08/25 12:07:11;;;;;;;6.90;6.10;;;;;;;;;;5032489;28;20503;-55
2021/08/25 12:09:39;;;;;;;6.90;5.67;;;;;;;;;;5032621;28;20542;-55
2021/08/25 12:12:06;;;;;;;6.13;4.67;;;;;;;;;;5032714;28;20452;-54
2021/08/25 12:14:48;;;;;;;6.40;4.53;;;;;;;;;;5032820;28;20503;-54
2021/08/25 12:17:16;;;;;;;7.97;5.20;;;;;;;;;;5033065;28;20440;-54
2021/08/25 12:19:55;;;;;;;5.17;4.67;;;;;;;;;;5032388;28;20469;-56
2021/08/25 12:22:24;;;;;;;6.90;4.93;;;;;;;;;;5033539;28;20425;-55
2021/08/25 12:24:51;;;;;;;6.33;4.40;;;;;;;;;;5032648;28;20456;-54
2021/08/25 12:27:18;;;;;;;6.47;5.30;;;;;;;;;;5032617;28;20498;-55
2021/08/25 12:29:46;;;;;;;8.37;6.17;;;;;;;;;;5035105;28;20995;-55
2021/08/25 12:32:13;;;;;;;6.13;5.00;;;;;;;;;;5036607;28;20798;-54
2021/08/25 12:35:02;;;;;;;6.53;5.83;;;;;;;;;;5036338;28;20450;-56
2021/08/25 12:37:47;;;;;;;7.47;5.27;;;;;;;;;;5036356;28;20803;-54
2021/08/25 12:40:19;;;;;;;7.13;6.10;;;;;;;;;;5036479;28;20449;-54
2021/08/25 12:42:46;;;;;;;5.30;4.80;;;;;;;;;;5036209;28;20429;-53
2021/08/25 12:45:13;;;;;;;8.13;4.70;;;;;;;;;;5036444;28;20441;-55
2021/08/25 12:47:41;;;;;;;6.80;5.33;;;;;;;;;;5035992;28;20940;-54
2021/08/25 12:50:08;;;;;;;5.40;4.57;;;;;;;;;;5036426;28;20905;-57
2021/08/25 12:52:36;;;;;;;5.47;4.97;;;;;;;;;;5036876;28;20448;-56
2021/08/25 12:55:05;;;;;;;5.33;4.37;;;;;;;;;;5036166;28;20848;-55
2021/08/25 12:57:33;;;;;;;5.50;4.63;;;;;;;;;;5036039;28;20455;-55
2021/08/25 13:00:01;;;;;;;8.90;4.90;;;;;;;;;;5060751;22;20476;-60
2021/08/25 13:02:28;;;;;;;5.67;5.17;;;;;;;;;;5037039;28;20499;-60
2021/08/25 13:04:55;;;;;;;6.67;5.10;;;;;;;;;;5036142;28;20497;-59
2021/08/25 13:07:22;;;;;;;6.43;5.00;;;;;;;;;;5036066;28;20448;-60
2021/08/25 13:09:50;;;;;;;7.23;5.20;;;;;;;;;;5036285;28;21062;-59
2021/08/25 13:12:17;;;;;;;6.23;5.00;;;;;;;;;;5037835;28;20452;-59
2021/08/25 13:14:46;;;;;;;7.63;5.70;;;;;;;;;;5036249;28;20445;-60
2021/08/25 13:17:13;;;;;;;6.20;5.00;;;;;;;;;;5036017;28;20482;-60
2021/08/25 13:19:40;;;;;;;5.30;4.80;;;;;;;;;;5035850;28;20996;-59
2021/08/25 13:22:07;;;;;;;6.30;5.10;;;;;;;;;;5036205;28;20443;-58
2021/08/25 13:24:34;;;;;;;5.63;4.87;;;;;;;;;;5035767;28;20494;-59
2021/08/25 13:27:02;;;;;;;6.13;5.57;;;;;;;;;;5036049;28;20499;-59
2021/08/25 13:29:29;;;;;;;5.63;5.00;;;;;;;;;;5035974;28;20484;-60
2021/08/25 13:31:58;;;;;;;6.40;4.43;;;;;;;;;;5035572;28;20476;-59
2021/08/25 13:34:25;;;;;;;11.13;5.93;;;;;;;;;;5035825;28;20502;-59
2021/08/25 13:36:52;;;;;;;6.23;5.20;;;;;;;;;;5035196;28;20437;-58
2021/08/25 13:39:19;;;;;;;7.17;6.57;;;;;;;;;;5035030;28;20450;-58
2021/08/25 13:41:47;;;;;;;6.30;5.70;;;;;;;;;;5035481;28;20470;-58
2021/08/25 13:44:14;;;;;;;8.17;6.47;;;;;;;;;;5035777;28;20455;-58
2021/08/25 13:46:41;;;;;;;7.40;6.70;;;;;;;;;;5035341;28;20455;-59
2021/08/25 13:49:10;;;;;;;8.50;6.40;;;;;;;;;;5035364;28;20446;-59
2021/08/25 13:51:37;;;;;;;7.33;5.57;;;;;;;;;;5035103;28;20567;-58
2021/08/25 13:54:04;;;;;;;5.87;5.33;;;;;;;;;;5035209;28;20446;-59
2021/08/25 13:56:31;;;;;;;15.57;6.30;;;;;;;;;;5035571;28;20451;-60
2021/08/25 13:58:59;;;;;;;6.23;5.63;;;;;;;;;;5035087;28;20451;-59
2021/08/25 14:01:26;;;;;;;6.50;5.57;;;;;;;;;;5034697;28;20896;-60
2021/08/25 14:03:53;;;;;;;5.90;5.30;;;;;;;;;;5034858;28;20455;-59
2021/08/25 14:06:22;;;;;;;5.60;4.80;;;;;;;;;;5035407;28;20442;-61
2021/08/25 14:08:50;;;;;;;5.47;4.87;;;;;;;;;;5035040;28;20448;-60
2021/08/25 14:11:17;;;;;;;5.07;4.57;;;;;;;;;;5034760;28;20564;-60
2021/08/25 14:13:45;;;;;;;6.90;5.30;;;;;;;;;;5034603;28;20458;-60
2021/08/25 14:16:12;;;;;;;4.77;4.37;;;;;;;;;;5034996;28;20517;-60
2021/08/25 14:18:39;;;;;;;5.00;4.50;;;;;;;;;;5034814;28;20502;-60
2021/08/25 14:21:07;;;;;;;5.17;4.40;;;;;;;;;;5035156;28;20495;-59
2021/08/25 14:23:35;;;;;;;4.43;3.80;;;;;;;;;;5035148;28;20447;-59
2021/08/25 14:26:02;;;;;;;4.83;3.87;;;;;;;;;;5035032;28;20443;-61
2021/08/25 14:28:30;;;;;;;4.60;4.10;;;;;;;;;;5034837;28;20446;-59
2021/08/25 14:30:58;;;;;;;4.97;4.10;;;;;;;;;;5034417;28;20487;-58
2021/08/25 14:33:25;;;;;;;5.60;4.73;;;;;;;;;;5034682;28;20464;-60
2021/08/25 14:35:53;;;;;;;8.50;3.20;;;;;;;;;;5034698;28;20448;-59
2021/08/25 14:38:20;;;;;;;3.97;3.57;;;;;;;;;;5034138;28;20512;-60
2021/08/25 14:40:49;;;;;;;3.50;3.20;;;;;;;;;;5034389;28;20552;-59
2021/08/25 14:43:17;;;;;;;5.33;3.70;;;;;;;;;;5034429;28;20454;-60
2021/08/25 14:45:44;;;;;;;5.60;3.70;;;;;;;;;;5034203;28;20447;-60
2021/08/25 14:48:11;;;;;;;4.13;3.30;;;;;;;;;;5034489;28;20506;-60
2021/08/25 14:50:39;;;;;;;4.97;3.77;;;;;;;;;;5033978;28;20487;-59